Time;durP1;ratioP1;P1;durP2;ratioP2;P2;SDS_P1;SDS_P2;PMS_P1;PMS_P2;Temp;Humidity;BMP_temperature;BMP_pressure;BME280_temperature;BME280_humidity;BME280_pressure;Samples;Min_cycle;Max_cycle;Signal;HPM_P1;HPM_P2
2023/04/14 00:00:39;;;;;;;14.83;9.23;;;9.60;99.90;8.90;99736;;;;569931;248;24134;-75
2023/04/14 00:03:07;;;;;;;11.60;8.13;;;9.60;99.90;8.90;99735;;;;579208;248;24107;-76
2023/04/14 00:05:35;;;;;;;13.70;7.67;;;9.60;99.90;8.90;99729;;;;579164;248;24096;-76
2023/04/14 00:08:04;;;;;;;11.90;7.67;;;9.60;99.90;8.80;99735;;;;579080;244;24111;-76
2023/04/14 00:10:32;;;;;;;10.77;7.70;;;9.50;99.90;8.80;99737;;;;579540;248;24079;-77
2023/04/14 00:13:00;;;;;;;11.73;8.23;;;9.50;99.90;8.80;99735;;;;579506;244;24104;-77
2023/04/14 00:15:28;;;;;;;14.10;7.30;;;9.50;99.90;8.80;99733;;;;579546;248;24090;-76
2023/04/14 00:17:56;;;;;;;10.27;7.97;;;9.50;99.90;8.80;99729;;;;579556;248;24114;-78
2023/04/14 00:20:24;;;;;;;13.90;8.63;;;9.50;99.90;8.80;99720;;;;579492;248;24099;-77
2023/04/14 00:22:52;;;;;;;10.37;7.30;;;9.50;99.90;8.80;99723;;;;579561;248;24150;-77
2023/04/14 00:25:20;;;;;;;13.63;8.67;;;9.50;99.90;8.80;99719;;;;580515;244;24167;-77
2023/04/14 00:27:48;;;;;;;14.00;8.90;;;9.50;99.90;8.80;99725;;;;580666;247;24101;-77
2023/04/14 00:30:16;;;;;;;12.13;8.00;;;9.50;99.90;8.80;99728;;;;580387;243;24082;-76
2023/04/14 00:32:44;;;;;;;22.40;8.80;;;9.50;99.90;8.90;99731;;;;580346;247;24100;-75
2023/04/14 00:35:11;;;;;;;13.40;9.10;;;9.60;99.90;8.90;99726;;;;580050;247;24152;-77
2023/04/14 00:37:39;;;;;;;10.63;8.53;;;9.60;99.90;8.90;99732;;;;580030;247;24156;-77
2023/04/14 00:40:10;;;;;;;16.07;8.90;;;9.60;99.90;8.90;99723;;;;580046;244;24138;-76
2023/04/14 00:42:42;;;;;;;10.23;7.53;;;9.60;99.90;9.00;99726;;;;576897;244;24071;-75
2023/04/14 00:45:10;;;;;;;10.63;8.00;;;9.70;99.90;9.00;99730;;;;568907;249;24106;-76
2023/04/14 00:47:41;;;;;;;11.83;8.37;;;9.70;99.90;9.00;99721;;;;574127;246;24097;-76
2023/04/14 00:50:09;;;;;;;14.23;8.90;;;9.70;99.90;9.00;99731;;;;579602;244;24065;-76
2023/04/14 00:52:40;;;;;;;11.83;8.73;;;9.70;99.90;9.00;99735;;;;579456;244;24106;-76
2023/04/14 00:55:05;;;;;;;11.70;8.87;;;9.70;99.90;9.00;99738;;;;570223;248;24098;-76
2023/04/14 00:57:33;;;;;;;12.37;8.50;;;9.70;99.90;9.00;99737;;;;570726;248;24124;-76
2023/04/14 01:00:04;;;;;;;11.70;9.57;;;9.70;99.90;9.00;99747;;;;579334;244;24102;-76
2023/04/14 01:02:30;;;;;;;14.50;12.30;;;9.70;99.90;9.00;99748;;;;565238;248;35455;-76
2023/04/14 01:04:58;;;;;;;18.77;10.73;;;9.70;99.90;9.00;99743;;;;579046;244;24089;-77
2023/04/14 01:07:26;;;;;;;18.70;9.90;;;9.70;99.90;9.00;99738;;;;579347;248;24096;-76
2023/04/14 01:09:54;;;;;;;13.90;9.63;;;9.70;99.90;9.00;99739;;;;570454;248;24108;-77
2023/04/14 01:12:36;;;;;;;11.97;9.63;;;9.70;99.90;9.00;99744;;;;570799;248;24149;-76
2023/04/14 01:15:41;;;;;;;15.63;10.53;;;9.70;99.90;9.00;99748;;;;579557;248;24088;-77
2023/04/14 01:18:18;;;;;;;15.67;9.40;;;9.70;99.90;8.90;99753;;;;579519;244;24097;-76
2023/04/14 01:20:49;;;;;;;11.57;9.90;;;9.60;99.90;8.90;99743;;;;570876;248;24176;-76
2023/04/14 01:23:26;;;;;;;14.43;9.90;;;9.60;99.90;8.90;99752;;;;570711;248;24109;-76
2023/04/14 01:26:12;;;;;;;21.33;16.20;;;9.60;99.90;8.90;99752;;;;575285;243;35151;-76
2023/04/14 01:29:20;;;;;;;16.83;12.03;;;9.60;99.90;8.90;99748;;;;566758;249;24093;-76
2023/04/14 01:32:04;;;;;;;18.90;11.43;;;9.60;99.90;8.90;99747;;;;580773;244;24108;-77
2023/04/14 01:34:44;;;;;;;14.10;10.00;;;9.70;99.90;9.00;99752;;;;579489;244;24049;-75
2023/04/14 01:37:15;;;;;;;16.50;11.30;;;9.70;99.90;9.00;99756;;;;577306;244;24048;-76
2023/04/14 01:39:45;;;;;;;14.67;10.63;;;9.70;99.90;9.00;99756;;;;580186;244;24061;-76
2023/04/14 01:42:13;;;;;;;13.17;10.50;;;9.70;99.90;9.00;99752;;;;580349;244;24066;-76
2023/04/14 01:44:41;;;;;;;15.40;10.37;;;9.70;99.90;9.00;99748;;;;588825;244;24046;-76
2023/04/14 01:47:09;;;;;;;12.67;9.50;;;9.70;99.90;9.00;99755;;;;588654;244;24068;-76
2023/04/14 01:49:37;;;;;;;14.50;10.70;;;9.70;99.90;9.00;99744;;;;588670;244;24059;-77
2023/04/14 01:52:06;;;;;;;13.03;9.73;;;9.60;99.90;8.90;99750;;;;579161;248;24167;-76
2023/04/14 01:54:37;;;;;;;14.63;9.80;;;9.60;99.90;8.90;99752;;;;579314;244;25478;-76
2023/04/14 01:57:01;;;;;;;15.10;10.30;;;9.60;99.90;8.90;99750;;;;570271;248;24106;-77
2023/04/14 01:59:30;;;;;;;14.03;11.10;;;9.50;99.90;8.80;99753;;;;570922;248;24177;-76
2023/04/14 02:01:59;;;;;;;18.57;11.43;;;9.50;99.90;8.80;99748;;;;571013;248;24106;-77
2023/04/14 02:04:25;;;;;;;16.60;11.50;;;9.50;99.90;8.80;99748;;;;570931;248;24108;-76
2023/04/14 02:06:53;;;;;;;14.73;10.00;;;9.50;99.90;8.80;99753;;;;571019;248;24141;-78
2023/04/14 02:09:21;;;;;;;17.93;11.70;;;9.40;99.90;8.70;99750;;;;579338;248;24175;-76
2023/04/14 02:11:50;;;;;;;19.07;11.97;;;9.40;99.90;8.70;99744;;;;571033;248;24125;-76
2023/04/14 02:14:17;;;;;;;16.17;10.37;;;9.40;99.90;8.70;99738;;;;579417;245;24097;-74
2023/04/14 02:16:45;;;;;;;17.53;12.10;;;9.40;99.90;8.70;99739;;;;579243;244;24086;-76
2023/04/14 02:19:13;;;;;;;15.73;11.37;;;9.40;99.90;8.60;99743;;;;579486;244;24065;-76
2023/04/14 02:21:41;;;;;;;19.87;11.47;;;9.30;99.90;8.60;99742;;;;570500;248;24128;-76
2023/04/14 02:24:09;;;;;;;16.60;11.50;;;9.30;99.90;8.60;99738;;;;578625;245;24114;-76
2023/04/14 02:26:37;;;;;;;18.93;11.67;;;9.30;99.90;8.60;99744;;;;579128;248;25129;-78
2023/04/14 02:29:15;;;;;;;19.13;12.17;;;9.30;99.90;8.60;99751;;;;570436;248;24165;-77
2023/04/14 02:31:46;;;;;;;18.67;11.87;;;9.30;99.90;8.60;99749;;;;570419;248;24104;-76
2023/04/14 02:34:11;;;;;;;18.90;11.73;;;9.30;99.90;8.60;99756;;;;570357;246;24117;-76
2023/04/14 02:36:39;;;;;;;18.07;11.80;;;9.20;99.90;8.60;99756;;;;570417;248;24154;-75
2023/04/14 02:39:10;;;;;;;16.90;12.03;;;9.30;99.90;8.60;99755;;;;578409;244;24077;-77
2023/04/14 02:41:38;;;;;;;21.97;12.63;;;9.30;99.90;8.60;99754;;;;579211;244;24045;-76
2023/04/14 02:44:14;;;;;;;18.80;11.90;;;9.20;99.90;8.60;99759;;;;576838;249;24108;-77
2023/04/14 02:46:42;;;;;;;21.20;13.13;;;9.20;99.90;8.50;99756;;;;588199;244;24085;-77
2023/04/14 02:49:13;;;;;;;19.80;12.87;;;9.20;99.90;8.50;99749;;;;589197;242;24040;-76
2023/04/14 02:51:39;;;;;;;18.93;12.10;;;9.20;99.90;8.50;99746;;;;578040;244;24122;-77
2023/04/14 02:54:06;;;;;;;19.40;11.87;;;9.20;99.90;8.50;99746;;;;580266;244;24041;-78
2023/04/14 02:56:34;;;;;;;22.63;13.23;;;9.20;99.90;8.50;99752;;;;571534;248;24169;-76
2023/04/14 02:59:06;;;;;;;22.00;18.37;;;9.20;99.90;8.50;99762;;;;574709;247;35422;-76
2023/04/14 03:01:31;;;;;;;21.57;15.33;;;9.20;99.90;8.50;99762;;;;570726;248;24159;-76
2023/04/14 03:03:59;;;;;;;21.40;12.87;;;9.20;99.90;8.50;99760;;;;570737;248;24112;-77
2023/04/14 03:06:27;;;;;;;19.57;13.13;;;9.20;99.90;8.50;99760;;;;570648;248;24110;-76
2023/04/14 03:08:58;;;;;;;17.43;12.87;;;9.10;99.90;8.40;99763;;;;570757;248;24183;-76
2023/04/14 03:11:27;;;;;;;20.30;12.33;;;9.10;99.90;8.40;99756;;;;570328;248;24123;-76
2023/04/14 03:13:51;;;;;;;18.23;12.03;;;9.10;99.90;8.40;99763;;;;570378;248;24130;-76
2023/04/14 03:16:19;;;;;;;20.90;12.33;;;9.10;99.90;8.30;99773;;;;570973;248;24110;-77
2023/04/14 03:18:54;;;;;;;20.10;11.63;;;9.00;99.90;8.30;99775;;;;570860;248;24121;-77
2023/04/14 03:21:19;;;;;;;19.20;12.80;;;9.00;99.90;8.30;99774;;;;570742;248;24109;-76
2023/04/14 03:23:47;;;;;;;20.90;12.03;;;9.00;99.90;8.40;99777;;;;579545;247;24124;-76
2023/04/14 03:26:17;;;;;;;15.97;11.60;;;9.00;99.90;8.30;99778;;;;579367;248;24102;-77
2023/04/14 03:28:47;;;;;;;16.73;12.17;;;9.10;99.90;8.30;99781;;;;570643;248;24138;-77
2023/04/14 03:31:10;;;;;;;21.73;12.73;;;9.00;99.90;8.30;99784;;;;579031;248;24144;-77
2023/04/14 03:33:42;;;;;;;17.50;11.57;;;9.00;99.90;8.30;99780;;;;570758;248;24099;-77
2023/04/14 03:36:06;;;;;;;18.83;12.87;;;9.00;99.90;8.30;99784;;;;570369;248;25167;-76
2023/04/14 03:38:34;;;;;;;23.23;13.17;;;9.00;99.90;8.30;99784;;;;570781;248;24098;-77
2023/04/14 03:41:04;;;;;;;21.50;14.63;;;9.00;99.90;8.30;99791;;;;588415;241;24121;-76
2023/04/14 03:43:33;;;;;;;16.60;11.83;;;9.00;99.90;8.30;99788;;;;579426;244;24074;-76
2023/04/14 03:45:58;;;;;;;24.00;13.40;;;9.00;99.90;8.30;99784;;;;579094;244;24049;-76
2023/04/14 03:48:28;;;;;;;20.20;13.00;;;9.00;99.90;8.30;99791;;;;578920;244;24093;-76
2023/04/14 03:50:54;;;;;;;18.57;13.23;;;8.90;99.90;8.30;99787;;;;568322;249;24117;-77
2023/04/14 03:53:22;;;;;;;17.63;12.10;;;8.90;99.90;8.30;99798;;;;576931;246;24153;-77
2023/04/14 03:55:50;;;;;;;18.00;12.60;;;8.90;99.90;8.30;99793;;;;577597;244;24057;-75
2023/04/14 03:58:18;;;;;;;20.43;13.07;;;8.90;99.90;8.30;99796;;;;579310;244;24061;-77
2023/04/14 04:00:46;;;;;;;18.80;11.93;;;8.90;99.90;8.30;99797;;;;580467;244;24043;-77
2023/04/14 04:03:15;;;;;;;19.63;13.33;;;8.90;99.90;8.20;99788;;;;580267;244;24183;-77
2023/04/14 04:05:46;;;;;;;22.67;13.37;;;8.90;99.90;8.30;99791;;;;571078;248;24206;-76
2023/04/14 04:08:11;;;;;;;22.60;13.53;;;8.90;99.90;8.30;99803;;;;570884;248;24121;-77
2023/04/14 04:10:39;;;;;;;20.40;13.37;;;8.90;99.90;8.30;99799;;;;570937;248;24120;-76
2023/04/14 04:13:07;;;;;;;20.90;13.03;;;8.90;99.90;8.20;99799;;;;579616;244;24152;-77
2023/04/14 04:15:35;;;;;;;20.77;13.67;;;8.90;99.90;8.20;99811;;;;571177;248;24118;-77
2023/04/14 04:18:03;;;;;;;23.67;13.53;;;8.90;99.90;8.20;99802;;;;579748;247;24175;-77
2023/04/14 04:20:31;;;;;;;18.23;13.67;;;8.90;99.90;8.20;99804;;;;570988;248;24130;-77
2023/04/14 04:23:00;;;;;;;20.07;13.03;;;8.90;99.90;8.20;99820;;;;570933;248;24116;-77
2023/04/14 04:25:27;;;;;;;19.50;12.77;;;8.90;99.90;8.20;99819;;;;571032;248;24098;-78
2023/04/14 04:27:55;;;;;;;20.50;12.97;;;8.90;99.90;8.20;99824;;;;579764;247;24188;-78
2023/04/14 04:30:23;;;;;;;27.77;13.50;;;8.90;99.90;8.20;99822;;;;579807;247;24108;-78
2023/04/14 04:32:52;;;;;;;23.70;14.40;;;8.90;99.90;8.20;99818;;;;571024;248;24128;-77
2023/04/14 04:35:20;;;;;;;24.03;13.27;;;8.90;99.90;8.30;99828;;;;579668;244;24147;-77
2023/04/14 04:37:48;;;;;;;21.63;13.00;;;8.90;99.90;8.30;99827;;;;570765;248;24118;-78
2023/04/14 04:40:16;;;;;;;20.87;12.63;;;9.00;99.90;8.40;99830;;;;570755;248;24097;-77
2023/04/14 04:42:44;;;;;;;21.53;12.63;;;9.10;99.90;8.50;99824;;;;579526;248;24128;-77
2023/04/14 04:45:11;;;;;;;23.33;13.03;;;9.10;99.90;8.50;99829;;;;579494;248;24079;-77
2023/04/14 04:47:39;;;;;;;23.40;14.30;;;9.30;99.90;8.60;99831;;;;570819;248;24086;-77
2023/04/14 04:50:07;;;;;;;23.27;14.40;;;9.30;99.90;8.80;99832;;;;584978;237;24108;-80
2023/04/14 04:52:35;;;;;;;22.50;14.57;;;9.40;99.90;9.00;99834;;;;577069;245;24085;-76
2023/04/14 04:55:03;;;;;;;22.37;14.13;;;9.60;99.90;9.30;99832;;;;577128;245;24093;-75
2023/04/14 04:57:31;;;;;;;22.90;14.00;;;9.90;99.90;9.90;99841;;;;578853;242;24054;-80
2023/04/14 04:59:59;;;;;;;28.87;17.67;;;10.40;99.90;10.60;99841;;;;583842;242;24059;-76
2023/04/14 05:02:27;;;;;;;28.33;18.60;;;11.00;99.90;11.10;99840;;;;581330;242;24052;-79
2023/04/14 05:04:56;;;;;;;28.37;19.30;;;11.60;99.90;11.70;99848;;;;580599;242;24044;-78
2023/04/14 05:07:23;;;;;;;32.37;19.10;;;12.10;99.90;12.10;99853;;;;580711;242;24100;-77
2023/04/14 05:09:51;;;;;;;27.17;19.77;;;12.60;99.90;12.70;99846;;;;580903;242;24049;-79
2023/04/14 05:12:18;;;;;;;25.70;19.03;;;13.10;99.90;13.20;99850;;;;582569;242;24040;-77
2023/04/14 05:14:46;;;;;;;28.33;20.07;;;13.70;99.90;13.60;99852;;;;582414;242;24112;-79
2023/04/14 05:17:15;;;;;;;23.73;17.23;;;14.80;99.90;14.20;99859;;;;593276;242;25083;-79
2023/04/14 05:19:43;;;;;;;19.90;15.73;;;14.70;99.90;14.90;99858;;;;581437;242;25133;-79
2023/04/14 05:22:11;;;;;;;18.53;13.93;;;15.50;99.90;15.50;99861;;;;580625;242;24048;-76
2023/04/14 05:24:39;;;;;;;15.03;12.63;;;16.10;99.90;16.20;99861;;;;580238;242;24048;-75
2023/04/14 05:27:07;;;;;;;14.33;12.43;;;16.80;99.90;17.10;99861;;;;580102;242;25101;-75
2023/04/14 05:29:35;;;;;;;14.30;11.90;;;17.60;99.90;17.90;99861;;;;580110;242;24063;-76
2023/04/14 05:32:03;;;;;;;12.93;11.63;;;18.40;99.90;18.80;99854;;;;579866;242;24083;-75
2023/04/14 05:34:31;;;;;;;13.10;11.80;;;19.20;99.90;19.90;99854;;;;579857;242;24139;-76
2023/04/14 05:36:58;;;;;;;13.70;12.27;;;20.20;99.90;20.70;99847;;;;579909;242;24053;-76
2023/04/14 05:39:26;;;;;;;12.77;11.47;;;21.20;99.90;21.60;99844;;;;579876;242;24097;-77
2023/04/14 05:41:54;;;;;;;13.93;11.03;;;22.20;99.90;22.60;99851;;;;579970;242;24083;-79
2023/04/14 05:44:22;;;;;;;12.07;10.50;;;23.00;99.90;23.30;99850;;;;579878;242;24061;-78
2023/04/14 05:46:50;;;;;;;11.87;10.50;;;23.80;99.90;23.90;99850;;;;579968;242;23090;-77
2023/04/14 05:49:18;;;;;;;12.37;11.17;;;24.50;99.90;24.50;99847;;;;579733;242;23069;-77
2023/04/14 05:51:46;;;;;;;11.63;10.47;;;25.10;99.90;24.30;99842;;;;580092;242;23054;-76
2023/04/14 05:54:14;;;;;;;11.97;10.13;;;25.20;99.40;24.80;99846;;;;580005;242;23120;-78
2023/04/14 05:56:42;;;;;;;10.63;9.63;;;25.50;98.60;25.40;99844;;;;580035;242;24046;-76
2023/04/14 05:59:10;;;;;;;11.07;10.10;;;26.60;90.00;26.10;99843;;;;579916;242;23070;-79
2023/04/14 06:01:39;;;;;;;12.13;10.70;;;27.10;87.80;26.40;99841;;;;579677;242;23149;-79
2023/04/14 06:04:08;;;;;;;13.80;11.47;;;27.50;88.50;26.80;99856;;;;579631;242;23097;-77
2023/04/14 06:06:36;;;;;;;13.07;11.83;;;27.40;88.20;27.30;99859;;;;579784;242;24100;-79
2023/04/14 06:09:04;;;;;;;13.47;10.60;;;27.90;85.50;27.90;99864;;;;579740;242;23203;-79
2023/04/14 06:11:32;;;;;;;11.38;10.13;;;28.50;82.30;28.50;99859;;;;579764;242;23058;-75
2023/04/14 06:14:01;;;;;;;10.82;9.93;;;29.10;77.00;28.40;99870;;;;579583;242;23055;-76
2023/04/14 06:16:27;;;;;;;10.95;10.05;;;29.30;71.90;28.00;99879;;;;579674;242;23067;-76
2023/04/14 06:18:55;;;;;;;11.15;10.25;;;28.90;71.60;27.10;99876;;;;579503;242;23086;-77
2023/04/14 06:21:23;;;;;;;11.30;10.23;;;28.10;69.90;26.10;99879;;;;579420;242;23074;-75
2023/04/14 06:23:52;;;;;;;11.93;10.90;;;26.20;72.30;24.70;99878;;;;580983;242;23128;-77
2023/04/14 06:26:21;;;;;;;11.73;10.80;;;26.20;72.30;23.90;99869;;;;580593;242;23117;-77
2023/04/14 06:28:48;;;;;;;12.33;11.23;;;25.20;76.00;24.70;99881;;;;580460;242;23059;-79
2023/04/14 06:31:16;;;;;;;12.93;11.70;;;25.40;77.40;25.90;99878;;;;580420;242;23083;-80
2023/04/14 06:33:44;;;;;;;13.40;12.10;;;26.20;78.90;27.60;99885;;;;580317;242;24082;-77
2023/04/14 06:36:17;;;;;;;13.17;12.07;;;29.00;72.40;28.90;99886;;;;580209;242;24079;-76
2023/04/14 06:38:40;;;;;;;10.65;9.65;;;29.00;72.30;28.70;99889;;;;580124;242;23089;-76
2023/04/14 06:41:08;;;;;;;12.77;11.63;;;29.30;68.30;28.30;99881;;;;580099;242;23066;-76
2023/04/14 06:43:36;;;;;;;12.57;11.38;;;29.10;66.60;28.80;99885;;;;579870;242;24090;-75
2023/04/14 06:46:07;;;;;;;12.68;11.68;;;29.40;68.40;29.50;99888;;;;579948;242;23125;-75
2023/04/14 06:48:32;;;;;;;13.60;12.57;;;30.00;67.20;30.60;99891;;;;582799;242;24061;-76
2023/04/14 06:51:00;;;;;;;14.95;13.48;;;30.90;64.40;31.20;99898;;;;579730;242;24052;-76
2023/04/14 06:53:29;;;;;;;13.55;12.43;;;32.10;58.80;31.50;99892;;;;580226;242;23063;-74
2023/04/14 06:56:00;;;;;;;13.57;12.37;;;32.00;58.70;30.70;99893;;;;580288;242;23065;-76
2023/04/14 06:58:28;;;;;;;14.93;13.62;;;31.90;58.60;31.20;99890;;;;579839;242;24162;-76
2023/04/14 07:00:59;;;;;;;15.45;13.98;;;32.70;57.60;32.30;99888;;;;582043;242;23114;-74
2023/04/14 07:03:27;;;;;;;17.83;13.38;;;32.60;57.50;33.10;99887;;;;591358;242;23086;-75
2023/04/14 07:05:55;;;;;;;13.90;12.63;;;33.50;56.80;33.60;99888;;;;582606;242;23081;-77
2023/04/14 07:08:24;;;;;;;14.52;13.10;;;34.70;53.10;34.20;99882;;;;582113;242;23070;-76
2023/04/14 07:10:52;;;;;;;14.02;12.93;;;34.60;53.00;33.90;99886;;;;579606;242;24147;-76
2023/04/14 07:13:20;;;;;;;13.85;12.68;;;34.70;51.50;33.80;99886;;;;582190;242;23075;-75
2023/04/14 07:15:48;;;;;;;13.77;12.55;;;34.60;51.70;33.80;99884;;;;579672;242;23058;-77
2023/04/14 07:18:16;;;;;;;12.85;11.65;;;34.60;51.40;33.50;99886;;;;579645;242;23165;-75
2023/04/14 07:20:44;;;;;;;13.43;12.32;;;34.20;51.10;33.60;99892;;;;580059;242;23077;-75
2023/04/14 07:23:12;;;;;;;14.07;13.05;;;34.20;51.10;33.90;99893;;;;579511;242;23084;-75
2023/04/14 07:25:40;;;;;;;14.25;13.15;;;34.50;51.10;32.70;99891;;;;579528;242;23065;-80
2023/04/14 07:28:08;;;;;;;15.23;13.88;;;33.90;50.40;31.80;99894;;;;579645;242;24064;-76
2023/04/14 07:30:36;;;;;;;15.30;14.10;;;32.90;52.30;31.70;99887;;;;579588;242;24077;-76
2023/04/14 07:33:04;;;;;;;15.63;14.30;;;32.50;52.90;32.40;99898;;;;579772;242;23137;-77
2023/04/14 07:35:36;;;;;;;15.82;14.52;;;32.70;53.10;33.00;99897;;;;581087;242;23068;-80
2023/04/14 07:38:00;;;;;;;17.95;16.27;;;33.30;52.30;32.80;99901;;;;580247;242;23097;-79
2023/04/14 07:40:28;;;;;;;17.40;15.85;;;33.40;50.80;31.90;99903;;;;580529;242;23099;-77
2023/04/14 07:42:56;;;;;;;19.00;16.15;;;32.80;51.70;30.30;99905;;;;580260;242;23047;-77
2023/04/14 07:45:23;;;;;;;18.60;16.95;;;31.70;52.40;28.60;99903;;;;580231;242;23070;-77
2023/04/14 07:47:51;;;;;;;18.58;16.77;;;30.20;54.10;27.00;99901;;;;592213;242;24135;-80
2023/04/14 07:50:19;;;;;;;19.90;17.90;;;28.60;55.90;25.90;99896;;;;580569;242;23063;-79
2023/04/14 07:52:47;;;;;;;18.57;16.80;;;27.20;58.30;25.30;99899;;;;580057;242;23164;-79
2023/04/14 07:55:19;;;;;;;19.07;16.83;;;26.30;60.60;25.10;99895;;;;580327;242;24081;-79
2023/04/14 07:57:43;;;;;;;19.17;17.17;;;25.80;62.80;25.90;99895;;;;582780;242;23080;-78
2023/04/14 08:00:14;;;;;;;22.97;18.40;;;26.10;63.30;26.80;99893;;;;579960;242;23098;-80
2023/04/14 08:02:39;;;;;;;21.07;19.03;;;26.90;62.30;27.50;99897;;;;583222;242;23089;-77
2023/04/14 08:05:07;;;;;;;18.77;17.17;;;27.70;59.80;27.00;99908;;;;580141;242;23089;-75
2023/04/14 08:07:35;;;;;;;18.70;16.70;;;27.60;59.30;26.10;99904;;;;579951;242;24084;-77
2023/04/14 08:10:06;;;;;;;18.10;16.30;;;27.00;60.10;24.90;99900;;;;580274;242;24213;-79
2023/04/14 08:12:31;;;;;;;20.17;18.27;;;26.10;61.30;24.80;99900;;;;582814;242;23075;-77
2023/04/14 08:14:59;;;;;;;19.63;17.50;;;25.50;63.00;25.10;99904;;;;579716;242;23101;-80
2023/04/14 08:17:27;;;;;;;22.33;20.23;;;25.50;64.40;26.10;99899;;;;574508;242;35191;-78
2023/04/14 08:19:55;;;;;;;23.87;18.23;;;27.30;61.10;27.10;99906;;;;580003;242;23062;-73
2023/04/14 08:22:24;;;;;;;21.10;18.80;;;27.20;61.00;27.60;99905;;;;579630;242;23079;-75
2023/04/14 08:24:51;;;;;;;19.65;17.67;;;27.90;58.90;27.50;99906;;;;579466;242;24082;-80
2023/04/14 08:27:19;;;;;;;19.37;17.43;;;28.20;58.40;26.80;99900;;;;582643;242;23099;-81
2023/04/14 08:29:47;;;;;;;20.48;18.23;;;27.70;58.70;26.50;99903;;;;579573;242;23073;-79
2023/04/14 08:32:15;;;;;;;18.40;16.60;;;27.20;60.20;27.20;99900;;;;591641;242;23064;-80
2023/04/14 08:34:46;;;;;;;17.42;15.88;;;27.70;59.40;27.80;99900;;;;579614;242;23062;-76
2023/04/14 08:37:11;;;;;;;20.02;15.20;;;28.40;58.20;29.00;99903;;;;582514;242;23082;-80
2023/04/14 08:39:39;;;;;;;17.83;15.40;;;29.40;57.10;29.90;99902;;;;579658;242;24080;-81
2023/04/14 08:42:10;;;;;;;16.77;15.07;;;30.40;56.20;30.80;99900;;;;579748;242;24073;-80
2023/04/14 08:44:35;;;;;;;17.20;14.65;;;31.20;55.00;31.40;99905;;;;591337;240;23070;-77
2023/04/14 08:47:03;;;;;;;21.45;16.08;;;32.00;53.70;31.80;99905;;;;581122;242;23050;-77
2023/04/14 08:49:46;;;;;;;14.13;12.93;;;32.50;53.00;32.30;99919;;;;581085;242;24074;-80
2023/04/14 08:52:17;;;;;;;15.90;14.32;;;32.80;52.50;33.40;99916;;;;592004;242;23096;-75
2023/04/14 08:54:46;;;;;;;16.02;14.63;;;34.60;49.10;33.90;99926;;;;592455;242;23071;-77
2023/04/14 08:57:20;;;;;;;14.32;13.13;;;35.30;48.00;34.60;99925;;;;583435;238;23097;-75
2023/04/14 08:59:51;;;;;;;14.15;12.95;;;35.20;47.90;35.10;99936;;;;583510;242;24091;-78
2023/04/14 09:02:16;;;;;;;15.70;14.20;;;36.00;46.90;35.50;99933;;;;593130;239;23112;-79
2023/04/14 09:04:44;;;;;;;13.93;12.65;;;36.50;46.20;35.90;99929;;;;582817;242;23078;-80
2023/04/14 09:07:12;;;;;;;13.55;12.30;;;37.00;45.20;36.10;99930;;;;580394;242;24112;-76
2023/04/14 09:09:40;;;;;;;12.95;11.95;;;37.50;44.10;35.90;99931;;;;592923;242;24111;-76
2023/04/14 09:12:08;;;;;;;10.95;10.05;;;37.50;44.20;35.80;99924;;;;580107;242;23063;-78
2023/04/14 09:14:36;;;;;;;11.98;10.90;;;37.30;44.30;35.80;99934;;;;582915;242;23136;-77
2023/04/14 09:17:03;;;;;;;12.27;11.25;;;37.30;43.60;35.70;99932;;;;582992;242;23061;-77
2023/04/14 09:19:31;;;;;;;12.45;11.40;;;37.10;43.90;35.70;99938;;;;580088;242;23204;-78
2023/04/14 09:21:59;;;;;;;11.70;10.65;;;37.10;43.90;35.90;99931;;;;582602;242;23181;-80
2023/04/14 09:24:33;;;;;;;11.40;10.57;;;37.10;43.50;35.50;99935;;;;586063;242;23079;-77
2023/04/14 09:27:07;;;;;;;9.52;8.82;;;37.10;43.00;34.60;99934;;;;579506;242;23064;-78
2023/04/14 09:29:32;;;;;;;10.27;9.48;;;36.40;44.00;33.80;99927;;;;585665;242;23067;-79
2023/04/14 09:32:00;;;;;;;10.13;9.23;;;34.60;45.40;33.40;99926;;;;579558;242;23074;-77
2023/04/14 09:34:28;;;;;;;10.02;9.23;;;34.70;45.50;33.20;99927;;;;586365;242;24111;-80
2023/04/14 09:37:03;;;;;;;10.05;9.35;;;34.30;46.00;33.10;99916;;;;579609;242;23066;-80
2023/04/14 09:39:30;;;;;;;10.63;9.82;;;34.00;46.60;33.50;99922;;;;591513;241;23077;-79
2023/04/14 09:41:54;;;;;;;10.07;9.25;;;34.50;46.00;34.10;99922;;;;592481;242;23063;-81
2023/04/14 09:44:22;;;;;;;10.45;9.68;;;35.20;45.30;34.90;99918;;;;579552;242;23062;-77
2023/04/14 09:46:59;;;;;;;11.35;9.80;;;36.00;44.80;35.70;99924;;;;579669;242;23101;-76
2023/04/14 09:49:28;;;;;;;10.48;9.45;;;37.00;43.80;36.40;99919;;;;582485;242;24171;-76
2023/04/14 09:51:55;;;;;;;10.48;9.73;;;37.80;42.70;36.50;99925;;;;591351;242;23058;-80
2023/04/14 09:54:24;;;;;;;10.40;9.68;;;38.80;41.50;37.20;99934;;;;582101;242;23071;-80
2023/04/14 09:56:52;;;;;;;12.00;9.85;;;39.20;41.30;37.30;99939;;;;580355;240;23096;-82
2023/04/14 09:59:32;;;;;;;10.55;9.68;;;39.10;41.10;36.70;99936;;;;583700;242;23110;-82
2023/04/14 10:02:00;;;;;;;10.73;9.93;;;38.90;41.20;35.50;99938;;;;583264;242;23122;-82
2023/04/14 10:04:28;;;;;;;10.65;9.85;;;37.80;41.90;35.30;99933;;;;583117;240;23136;-81
2023/04/14 10:06:57;;;;;;;11.95;10.95;;;36.80;42.40;34.80;99937;;;;575025;242;35145;-78
2023/04/14 10:09:32;;;;;;;11.32;10.63;;;35.80;42.50;33.30;99929;;;;582926;242;23089;-76
2023/04/14 10:12:08;;;;;;;11.57;10.77;;;35.70;43.10;31.80;99926;;;;580750;242;24199;-79
2023/04/14 10:14:40;;;;;;;10.90;10.10;;;34.20;45.10;29.50;99936;;;;591789;242;23066;-80
2023/04/14 10:17:08;;;;;;;11.82;10.90;;;31.90;47.00;27.60;99928;;;;592726;242;23054;-77
2023/04/14 10:19:32;;;;;;;11.20;10.23;;;29.70;49.60;25.90;99931;;;;582601;242;23067;-80
2023/04/14 10:22:00;;;;;;;12.60;9.45;;;27.80;52.40;24.70;99931;;;;586347;242;24095;-78
2023/04/14 10:24:31;;;;;;;10.13;9.33;;;26.30;55.00;23.70;99924;;;;580127;242;23051;-76
2023/04/14 10:26:56;;;;;;;12.50;9.33;;;25.00;57.50;22.90;99924;;;;591468;242;24115;-80
2023/04/14 10:29:24;;;;;;;25.57;10.60;;;24.00;60.10;22.20;99914;;;;591292;242;24099;-78
2023/04/14 10:31:53;;;;;;;12.37;11.17;;;23.10;62.00;21.60;99920;;;;591295;242;24115;-80
2023/04/14 10:34:20;;;;;;;11.27;10.17;;;22.50;64.30;20.90;99909;;;;581869;241;24124;-79
2023/04/14 10:36:48;;;;;;;14.23;9.63;;;21.80;66.40;20.40;99914;;;;582525;242;24059;-78
2023/04/14 10:39:15;;;;;;;14.40;10.63;;;21.20;69.20;20.30;99914;;;;579431;242;24120;-78
2023/04/14 10:41:47;;;;;;;12.90;9.57;;;20.90;70.90;20.00;99909;;;;582470;242;24146;-77
2023/04/14 10:44:33;;;;;;;13.17;8.63;;;20.60;71.60;19.70;99912;;;;579730;242;24092;-80
2023/04/14 10:47:00;;;;;;;12.73;9.00;;;20.30;74.00;19.40;99908;;;;586083;242;23086;-78
2023/04/14 10:49:31;;;;;;;14.53;9.83;;;19.90;76.40;19.20;99911;;;;582415;242;24113;-77
2023/04/14 10:51:59;;;;;;;22.30;11.77;;;19.70;76.80;18.80;99905;;;;582352;242;24093;-79
2023/04/14 10:54:27;;;;;;;12.40;11.00;;;19.40;78.00;18.30;99902;;;;582061;242;24065;-78
2023/04/14 10:57:14;;;;;;;12.53;11.00;;;19.00;79.70;18.20;99901;;;;579920;242;24073;-80
2023/04/14 10:59:49;;;;;;;13.07;11.10;;;18.70;81.90;17.90;99902;;;;579584;242;24213;-80
2023/04/14 11:02:30;;;;;;;15.55;13.95;;;18.40;84.90;17.70;99905;;;;581331;242;35101;-76
2023/04/14 11:05:10;;;;;;;12.73;11.47;;;18.30;84.90;17.90;99897;;;;585542;242;24057;-75
2023/04/14 11:07:44;;;;;;;30.93;11.97;;;18.40;87.20;17.80;99904;;;;585791;242;24061;-80
2023/04/14 11:10:23;;;;;;;18.70;12.30;;;18.40;87.50;17.60;99900;;;;592413;241;23065;-82
2023/04/14 11:12:49;;;;;;;13.13;10.93;;;18.10;90.20;17.40;99899;;;;580782;242;24056;-80
2023/04/14 11:15:18;;;;;;;14.47;10.07;;;17.80;91.30;17.00;99906;;;;579709;242;24040;-78
2023/04/14 11:17:46;;;;;;;15.50;10.30;;;17.40;92.50;16.60;99895;;;;580321;242;24063;-78